createdAt,value
2019-05-18T00:00:52.924Z,99.90
2019-05-18T00:03:21.460Z,99.90
2019-05-18T00:05:49.927Z,99.90
2019-05-18T00:08:18.392Z,99.90
2019-05-18T00:10:46.892Z,99.90
2019-05-18T00:13:15.360Z,99.90
2019-05-18T00:15:43.884Z,99.90
2019-05-18T00:18:12.456Z,99.90
2019-05-18T00:20:41.024Z,99.90
2019-05-18T00:23:09.524Z,99.90
2019-05-18T00:25:38.049Z,99.90
2019-05-18T00:28:06.501Z,99.90
2019-05-18T00:30:34.974Z,99.90
2019-05-18T00:33:03.587Z,99.90
2019-05-18T00:35:32.210Z,99.90
2019-05-18T00:38:00.688Z,99.90
2019-05-18T00:40:29.262Z,99.90
2019-05-18T00:42:57.723Z,99.90
2019-05-18T00:45:26.178Z,99.90
2019-05-18T00:47:54.672Z,99.90
2019-05-18T00:50:23.179Z,99.90
2019-05-18T00:52:51.643Z,99.90
2019-05-18T00:55:20.155Z,99.90
2019-05-18T00:57:48.700Z,99.90
2019-05-18T01:00:17.704Z,99.90
2019-05-18T01:02:46.208Z,99.90
2019-05-18T01:05:14.961Z,99.90
2019-05-18T01:07:43.493Z,99.90
2019-05-18T01:10:12.648Z,99.90
2019-05-18T01:12:41.180Z,99.90
2019-05-18T01:15:10.795Z,99.90
2019-05-18T01:17:39.540Z,99.90
2019-05-18T01:20:08.854Z,99.90
2019-05-18T01:22:37.328Z,99.90
2019-05-18T01:25:06.289Z,99.90
2019-05-18T01:27:34.796Z,99.90
2019-05-18T01:30:05.281Z,99.90
2019-05-18T01:32:33.788Z,99.90
2019-05-18T01:35:02.330Z,99.90
2019-05-18T01:37:30.935Z,99.90
2019-05-18T01:39:59.467Z,99.90
2019-05-18T01:42:27.935Z,99.90
2019-05-18T01:44:56.435Z,99.90
2019-05-18T01:47:24.908Z,99.90
2019-05-18T01:49:53.425Z,99.90
2019-05-18T01:52:21.900Z,99.90
2019-05-18T01:54:50.433Z,99.90
2019-05-18T01:57:18.927Z,99.90
2019-05-18T01:59:47.435Z,99.90
2019-05-18T02:02:15.928Z,99.90
2019-05-18T02:04:44.393Z,99.90
2019-05-18T02:07:12.951Z,99.90
2019-05-18T02:09:41.450Z,99.90
2019-05-18T02:12:09.916Z,99.90
2019-05-18T02:14:38.458Z,99.90
2019-05-18T02:17:07.027Z,99.90
2019-05-18T02:19:35.610Z,99.90
2019-05-18T02:22:04.133Z,99.90
2019-05-18T02:24:32.580Z,99.90
2019-05-18T02:27:01.309Z,99.90
2019-05-18T02:29:29.761Z,99.90
2019-05-18T02:31:58.361Z,99.90
2019-05-18T02:34:26.902Z,99.90
2019-05-18T02:36:55.436Z,99.90
2019-05-18T02:39:23.967Z,99.90
2019-05-18T02:41:52.500Z,99.90
2019-05-18T02:44:20.947Z,99.90
2019-05-18T02:46:49.444Z,99.90
2019-05-18T02:49:18.041Z,99.90
2019-05-18T02:51:46.508Z,99.90
2019-05-18T02:54:15.044Z,99.90
2019-05-18T02:56:43.616Z,99.90
2019-05-18T02:59:12.153Z,99.90
2019-05-18T03:01:40.720Z,99.90
2019-05-18T03:04:09.228Z,99.90
2019-05-18T03:06:37.756Z,99.90
2019-05-18T03:09:06.908Z,99.90
2019-05-18T03:11:35.737Z,99.90
2019-05-18T03:14:04.608Z,99.90
2019-05-18T03:16:33.750Z,99.90
2019-05-18T03:19:08.241Z,99.90
2019-05-18T03:21:32.511Z,99.90
2019-05-18T03:24:00.983Z,99.90
2019-05-18T03:26:29.593Z,99.90
2019-05-18T03:28:58.129Z,99.90
2019-05-18T03:31:26.609Z,99.90
2019-05-18T03:33:55.169Z,99.90
2019-05-18T03:36:23.638Z,99.90
2019-05-18T03:38:52.207Z,99.90
2019-05-18T03:41:20.743Z,99.90
2019-05-18T03:43:49.227Z,99.90
2019-05-18T03:46:17.846Z,99.90
2019-05-18T03:48:46.370Z,99.90
2019-05-18T03:51:14.877Z,99.90
2019-05-18T03:53:43.326Z,99.90
2019-05-18T03:56:11.775Z,99.90
2019-05-18T03:58:40.553Z,99.90
2019-05-18T04:01:09.090Z,99.90
2019-05-18T04:03:37.671Z,99.90
2019-05-18T04:06:06.234Z,99.90
2019-05-18T04:08:34.798Z,99.90
2019-05-18T04:11:03.260Z,99.90
2019-05-18T04:13:31.849Z,99.90
2019-05-18T04:16:00.391Z,99.90
2019-05-18T04:18:28.926Z,99.90
2019-05-18T04:20:58.095Z,99.90
2019-05-18T04:23:26.601Z,99.90
2019-05-18T04:25:55.212Z,99.90
2019-05-18T04:28:23.681Z,99.90
2019-05-18T04:30:52.129Z,99.90
2019-05-18T04:33:20.639Z,99.90
2019-05-18T04:35:49.168Z,99.90
2019-05-18T04:38:17.684Z,99.90
2019-05-18T04:40:46.234Z,99.90
2019-05-18T04:43:14.771Z,99.90
2019-05-18T04:45:43.365Z,99.90
2019-05-18T04:48:11.814Z,99.90
2019-05-18T04:50:40.279Z,99.90
2019-05-18T04:53:08.773Z,99.90
2019-05-18T04:55:37.308Z,99.90
2019-05-18T04:58:05.805Z,99.90
2019-05-18T05:00:34.352Z,99.90
2019-05-18T05:03:03.399Z,99.90
2019-05-18T05:05:31.922Z,99.90
2019-05-18T05:08:00.389Z,99.90
2019-05-18T05:10:28.913Z,99.90
2019-05-18T05:12:57.429Z,99.90
2019-05-18T05:15:25.956Z,99.90
2019-05-18T05:17:54.416Z,99.90
2019-05-18T05:20:22.986Z,99.90
2019-05-18T05:22:51.630Z,99.90
2019-05-18T05:25:20.101Z,99.90
2019-05-18T05:27:48.658Z,99.90
2019-05-18T05:30:17.220Z,99.90
2019-05-18T05:32:45.747Z,99.90
2019-05-18T05:35:14.538Z,99.90
2019-05-18T05:37:43.073Z,99.90
2019-05-18T05:40:11.952Z,99.90
2019-05-18T05:42:40.477Z,99.90
2019-05-18T05:45:09.484Z,99.90
2019-05-18T05:47:37.939Z,99.90
2019-05-18T05:50:10.530Z,99.90
2019-05-18T05:52:39.072Z,99.90
2019-05-18T05:55:08.453Z,99.90
2019-05-18T05:57:37.017Z,99.90
2019-05-18T06:00:07.725Z,99.90
2019-05-18T06:02:36.291Z,99.90
2019-05-18T06:05:06.430Z,99.90
2019-05-18T06:07:35.369Z,99.90
2019-05-18T06:10:05.362Z,99.90
2019-05-18T06:12:33.849Z,99.90
2019-05-18T06:15:02.396Z,99.90
2019-05-18T06:17:31.000Z,99.90
2019-05-18T06:19:59.472Z,99.90
2019-05-18T06:22:28.005Z,99.90
2019-05-18T06:24:56.599Z,99.90
2019-05-18T06:27:25.149Z,99.90
2019-05-18T06:29:53.608Z,99.70
2019-05-18T06:32:22.106Z,99.90
2019-05-18T06:34:50.601Z,99.90
2019-05-18T06:37:19.085Z,98.70
2019-05-18T06:39:47.632Z,98.80
2019-05-18T06:42:16.161Z,98.00
2019-05-18T06:44:44.625Z,98.50
2019-05-18T06:47:13.153Z,98.00
2019-05-18T06:49:41.665Z,97.80
2019-05-18T06:52:10.139Z,98.10
2019-05-18T06:54:38.738Z,97.80
2019-05-18T06:57:08.470Z,97.10
2019-05-18T06:59:38.169Z,96.50
2019-05-18T07:02:06.706Z,96.30
2019-05-18T07:04:35.179Z,97.20
2019-05-18T07:07:03.714Z,97.10
2019-05-18T07:09:32.238Z,97.30
2019-05-18T07:12:00.698Z,97.00
2019-05-18T07:14:29.164Z,96.50
2019-05-18T07:16:57.674Z,96.20
2019-05-18T07:19:26.145Z,95.50
2019-05-18T07:21:54.594Z,95.30
2019-05-18T07:24:23.105Z,94.80
2019-05-18T07:26:51.640Z,94.70
2019-05-18T07:29:20.153Z,94.80
2019-05-18T07:31:48.694Z,93.50
2019-05-18T07:34:17.233Z,93.50
2019-05-18T07:36:45.808Z,93.60
2019-05-18T07:39:14.408Z,92.60
2019-05-18T07:41:46.786Z,93.00
2019-05-18T07:44:13.085Z,92.50
2019-05-18T07:46:41.644Z,93.00
2019-05-18T07:49:10.134Z,92.10
2019-05-18T07:51:38.585Z,92.00
2019-05-18T07:54:07.103Z,91.70
2019-05-18T07:56:35.572Z,91.70
2019-05-18T07:59:04.144Z,91.40
2019-05-18T08:01:32.689Z,91.10
2019-05-18T08:04:01.147Z,91.10
2019-05-18T08:06:29.704Z,91.10
2019-05-18T08:08:58.279Z,91.80
2019-05-18T08:11:26.816Z,91.10
2019-05-18T08:13:55.326Z,91.70
2019-05-18T08:16:23.876Z,91.00
2019-05-18T08:18:52.393Z,90.60
2019-05-18T08:21:21.039Z,91.70
2019-05-18T08:23:49.581Z,90.30
2019-05-18T08:26:18.090Z,90.40
2019-05-18T08:28:46.599Z,88.80
2019-05-18T08:31:15.212Z,89.50
2019-05-18T08:33:43.690Z,88.10
2019-05-18T08:36:36.508Z,88.50
2019-05-18T08:39:06.567Z,89.30
2019-05-18T08:41:35.089Z,87.00
2019-05-18T08:44:03.593Z,88.20
2019-05-18T08:46:32.973Z,87.10
2019-05-18T08:49:01.430Z,88.10
2019-05-18T08:51:29.937Z,88.40
2019-05-18T08:53:58.398Z,87.90
2019-05-18T08:56:26.876Z,84.50
2019-05-18T08:58:55.462Z,82.90
2019-05-18T09:01:23.905Z,85.00
2019-05-18T09:03:52.363Z,83.70
2019-05-18T09:06:20.886Z,84.10
2019-05-18T09:08:49.414Z,82.40
2019-05-18T09:11:17.894Z,82.70
2019-05-18T09:13:46.492Z,82.10
2019-05-18T09:16:14.950Z,82.50
2019-05-18T09:18:43.399Z,81.20
2019-05-18T09:21:12.203Z,82.30
2019-05-18T09:23:40.658Z,81.50
2019-05-18T09:26:09.216Z,82.00
2019-05-18T09:28:37.742Z,80.80
2019-05-18T09:31:06.318Z,81.90
2019-05-18T09:33:34.841Z,78.90
2019-05-18T09:36:03.299Z,79.90
2019-05-18T09:38:33.371Z,78.70
2019-05-18T09:41:02.157Z,78.40
2019-05-18T09:43:30.618Z,79.70
2019-05-18T09:45:59.113Z,80.80
2019-05-18T09:48:27.566Z,80.70
2019-05-18T09:50:56.159Z,78.70
2019-05-18T09:53:24.627Z,79.60
2019-05-18T09:55:53.079Z,77.00
2019-05-18T09:58:21.579Z,77.40
2019-05-18T10:00:50.045Z,80.40
2019-05-18T10:03:18.638Z,78.40
2019-05-18T10:05:47.094Z,78.00
2019-05-18T10:08:15.547Z,78.80
2019-05-18T10:10:44.039Z,78.90
2019-05-18T10:13:12.502Z,78.70
2019-05-18T10:15:41.139Z,78.90
2019-05-18T10:18:09.600Z,76.60
2019-05-18T10:20:38.060Z,76.80
2019-05-18T10:23:12.678Z,76.80
2019-05-18T10:25:37.216Z,74.50
2019-05-18T10:28:05.714Z,74.50
2019-05-18T10:30:34.217Z,75.80
2019-05-18T10:33:02.713Z,75.00
2019-05-18T10:35:31.209Z,73.90
2019-05-18T10:37:59.698Z,72.50
2019-05-18T10:40:28.154Z,71.60
2019-05-18T10:42:56.655Z,75.40
2019-05-18T10:45:25.187Z,72.50
2019-05-18T10:47:53.642Z,73.60
2019-05-18T10:50:22.158Z,70.40
2019-05-18T10:52:50.610Z,67.80
2019-05-18T10:55:19.393Z,69.50
2019-05-18T10:57:47.886Z,71.90
2019-05-18T11:00:18.051Z,66.80
2019-05-18T11:02:45.763Z,67.70
2019-05-18T11:05:14.958Z,67.80
2019-05-18T11:07:43.522Z,67.40
2019-05-18T11:10:12.440Z,64.80
2019-05-18T11:12:40.994Z,66.10
2019-05-18T11:15:10.382Z,64.10
2019-05-18T11:17:39.107Z,61.20
2019-05-18T11:20:09.200Z,61.30
2019-05-18T11:22:37.315Z,63.50
2019-05-18T11:25:07.456Z,59.90
2019-05-18T11:27:35.270Z,57.00
2019-05-18T11:30:08.140Z,54.20
2019-05-18T11:32:37.355Z,57.20
2019-05-18T11:35:07.760Z,56.40
2019-05-18T11:37:36.294Z,55.00
2019-05-18T11:40:06.763Z,52.50
2019-05-18T11:42:35.258Z,49.40
2019-05-18T11:45:05.630Z,50.00
2019-05-18T11:47:34.082Z,48.60
2019-05-18T11:50:02.637Z,47.90
2019-05-18T11:52:31.173Z,48.00
2019-05-18T11:54:59.702Z,46.20
2019-05-18T11:57:28.194Z,46.40
2019-05-18T11:59:56.691Z,47.80
2019-05-18T12:02:25.178Z,44.40
2019-05-18T12:04:53.686Z,45.30
2019-05-18T12:07:22.175Z,47.20
2019-05-18T12:09:50.618Z,45.60
2019-05-18T12:12:19.104Z,46.50
2019-05-18T12:14:47.613Z,44.60
2019-05-18T12:17:16.086Z,44.30
2019-05-18T12:19:44.649Z,46.00
2019-05-18T12:22:13.092Z,44.40
2019-05-18T12:24:41.590Z,43.70
2019-05-18T12:27:10.042Z,45.70
2019-05-18T12:29:38.577Z,47.40
2019-05-18T12:32:07.074Z,48.10
2019-05-18T12:34:35.538Z,46.40
2019-05-18T12:37:04.062Z,44.20
2019-05-18T12:39:32.546Z,42.80
2019-05-18T12:42:01.055Z,43.90
2019-05-18T12:44:29.516Z,42.90
2019-05-18T12:46:57.988Z,44.80
2019-05-18T12:49:26.731Z,43.80
2019-05-18T12:51:55.184Z,46.40
2019-05-18T12:54:30.945Z,46.90
2019-05-18T12:56:53.859Z,47.00
2019-05-18T12:59:22.306Z,47.20
2019-05-18T13:01:50.819Z,44.30
2019-05-18T13:04:19.342Z,46.00
2019-05-18T13:06:47.791Z,46.90
2019-05-18T13:09:16.286Z,47.20
2019-05-18T13:11:44.736Z,46.80
2019-05-18T13:14:13.346Z,45.60
2019-05-18T13:16:41.886Z,44.70
2019-05-18T13:19:10.343Z,45.30
2019-05-18T13:21:38.836Z,43.90
2019-05-18T13:24:07.281Z,43.80
2019-05-18T13:26:35.814Z,46.70
2019-05-18T13:29:04.486Z,45.80
2019-05-18T13:31:32.943Z,45.90
2019-05-18T13:34:01.449Z,45.20
2019-05-18T13:36:29.912Z,45.10
2019-05-18T13:38:58.429Z,45.90
2019-05-18T13:41:26.994Z,46.20
2019-05-18T13:43:55.511Z,45.10
2019-05-18T13:46:23.956Z,43.70
2019-05-18T13:48:52.462Z,45.00
2019-05-18T13:51:20.915Z,45.10
2019-05-18T13:53:49.380Z,44.60
2019-05-18T13:56:17.966Z,40.90
2019-05-18T13:58:46.414Z,43.10
2019-05-18T14:01:14.866Z,41.90
2019-05-18T14:03:43.401Z,39.60
2019-05-18T14:06:11.888Z,41.50
2019-05-18T14:08:40.346Z,39.60
2019-05-18T14:11:08.833Z,37.10
2019-05-18T14:13:37.275Z,39.10
2019-05-18T14:16:05.772Z,41.40
2019-05-18T14:18:34.315Z,40.50
2019-05-18T14:21:02.850Z,40.60
2019-05-18T14:23:31.374Z,37.70
2019-05-18T14:25:59.857Z,38.10
2019-05-18T14:28:28.325Z,35.50
2019-05-18T14:30:56.865Z,35.30
2019-05-18T14:33:25.366Z,33.40
2019-05-18T14:35:53.918Z,33.90
2019-05-18T14:38:22.375Z,35.60
2019-05-18T14:40:50.910Z,35.80
2019-05-18T14:43:19.370Z,33.90
2019-05-18T14:45:49.471Z,34.20
2019-05-18T14:48:18.056Z,36.60
2019-05-18T14:50:46.578Z,37.40
2019-05-18T14:53:15.032Z,37.30
2019-05-18T14:55:43.521Z,38.40
2019-05-18T14:58:11.971Z,39.20
2019-05-18T15:00:40.487Z,37.10
2019-05-18T15:03:09.009Z,37.10
2019-05-18T15:05:38.805Z,36.50
2019-05-18T15:08:07.550Z,38.00
2019-05-18T15:10:36.087Z,37.90
2019-05-18T15:13:04.654Z,37.30
2019-05-18T15:15:33.117Z,37.70
2019-05-18T15:18:01.720Z,37.80
2019-05-18T15:20:30.395Z,36.40
2019-05-18T15:22:58.837Z,35.50
2019-05-18T15:25:27.331Z,32.20
2019-05-18T15:27:55.823Z,30.30
2019-05-18T15:30:24.711Z,29.80
2019-05-18T15:32:53.194Z,29.80
2019-05-18T15:35:21.689Z,29.00
2019-05-18T15:37:50.143Z,28.70
2019-05-18T15:40:19.004Z,30.30
2019-05-18T15:42:47.453Z,30.00
2019-05-18T15:45:17.711Z,29.30
2019-05-18T15:47:46.208Z,30.50
2019-05-18T15:50:15.222Z,30.10
2019-05-18T15:52:43.738Z,29.90
2019-05-18T15:55:12.529Z,30.70
2019-05-18T15:57:40.993Z,31.60
2019-05-18T16:00:10.579Z,30.40
2019-05-18T16:02:39.032Z,31.10
2019-05-18T16:05:08.935Z,32.10
2019-05-18T16:07:37.551Z,30.60
2019-05-18T16:10:06.747Z,30.10
2019-05-18T16:12:35.280Z,31.10
2019-05-18T16:15:07.439Z,30.00
2019-05-18T16:17:39.412Z,30.10
2019-05-18T16:20:06.983Z,30.10
2019-05-18T16:22:35.501Z,32.10
2019-05-18T16:25:05.990Z,30.50
2019-05-18T16:27:34.477Z,30.00
2019-05-18T16:30:06.628Z,31.20
2019-05-18T16:32:35.087Z,31.20
2019-05-18T16:35:04.908Z,29.50
2019-05-18T16:37:33.385Z,29.80
2019-05-18T16:40:01.848Z,35.80
2019-05-18T16:42:30.458Z,29.30
2019-05-18T16:44:58.915Z,29.50
2019-05-18T16:47:27.441Z,29.10
2019-05-18T16:49:55.929Z,28.80
2019-05-18T16:52:24.442Z,30.00
2019-05-18T16:54:52.896Z,29.50
2019-05-18T16:57:21.358Z,30.00
2019-05-18T16:59:49.876Z,30.50
2019-05-18T17:02:31.169Z,30.70
2019-05-18T17:04:48.604Z,31.10
2019-05-18T17:07:17.093Z,31.00
2019-05-18T17:09:45.538Z,31.40
2019-05-18T17:12:14.181Z,32.30
2019-05-18T17:14:42.623Z,32.80
2019-05-18T17:17:11.074Z,34.20
2019-05-18T17:19:39.648Z,34.70
2019-05-18T17:22:08.412Z,36.30
2019-05-18T17:24:36.865Z,36.30
2019-05-18T17:27:05.442Z,39.10
2019-05-18T17:29:33.891Z,34.80
2019-05-18T17:32:02.347Z,36.00
2019-05-18T17:34:30.938Z,35.80
2019-05-18T17:36:59.446Z,35.90
2019-05-18T17:39:28.031Z,35.70
2019-05-18T17:41:56.491Z,35.50
2019-05-18T17:44:24.946Z,36.10
2019-05-18T17:46:53.438Z,35.30
2019-05-18T17:49:26.908Z,35.90
2019-05-18T17:51:52.182Z,36.40
2019-05-18T17:54:20.715Z,36.90
2019-05-18T17:56:49.308Z,36.80
2019-05-18T17:59:17.825Z,37.10
2019-05-18T18:01:46.263Z,38.10
2019-05-18T18:04:14.799Z,39.90
2019-05-18T18:06:43.246Z,41.00
2019-05-18T18:09:11.695Z,43.30
2019-05-18T18:11:40.330Z,44.20
2019-05-18T18:14:08.855Z,44.20
2019-05-18T18:16:37.381Z,46.00
2019-05-18T18:19:05.915Z,47.10
2019-05-18T18:21:34.369Z,48.10
2019-05-18T18:24:03.106Z,49.50
2019-05-18T18:26:31.600Z,49.50
2019-05-18T18:29:00.153Z,50.60
2019-05-18T18:31:28.603Z,51.20
2019-05-18T18:33:57.091Z,52.30
2019-05-18T18:36:25.618Z,54.00
2019-05-18T18:38:54.074Z,55.70
2019-05-18T18:41:22.524Z,57.30
2019-05-18T18:43:51.017Z,59.50
2019-05-18T18:46:19.535Z,61.80
2019-05-18T18:48:48.081Z,63.50
2019-05-18T18:51:16.621Z,65.80
2019-05-18T18:53:45.159Z,68.00
2019-05-18T18:56:13.682Z,70.50
2019-05-18T18:58:42.170Z,71.90
2019-05-18T19:01:10.734Z,73.70
2019-05-18T19:03:39.212Z,75.10
2019-05-18T19:06:07.963Z,76.10
2019-05-18T19:08:36.419Z,76.40
2019-05-18T19:11:04.944Z,78.20
2019-05-18T19:13:33.442Z,79.50
2019-05-18T19:16:01.935Z,81.00
2019-05-18T19:18:30.523Z,82.30
2019-05-18T19:20:58.982Z,83.00
2019-05-18T19:23:27.580Z,84.20
2019-05-18T19:25:56.110Z,85.20
2019-05-18T19:28:24.559Z,86.40
2019-05-18T19:30:53.076Z,87.40
2019-05-18T19:33:21.562Z,87.80
2019-05-18T19:35:50.021Z,88.00
2019-05-18T19:38:18.630Z,88.40
2019-05-18T19:40:47.074Z,88.30
2019-05-18T19:43:15.590Z,89.00
2019-05-18T19:46:03.423Z,89.70
2019-05-18T19:48:31.875Z,89.60
2019-05-18T19:51:00.366Z,90.30
2019-05-18T19:53:28.862Z,90.40
2019-05-18T19:55:57.383Z,90.80
2019-05-18T19:58:25.916Z,91.00
2019-05-18T20:00:54.370Z,91.10
2019-05-18T20:03:22.942Z,91.80
2019-05-18T20:05:51.448Z,91.70
2019-05-18T20:08:19.913Z,91.60
2019-05-18T20:10:48.450Z,92.00
2019-05-18T20:13:17.107Z,92.30
2019-05-18T20:15:45.565Z,92.30
2019-05-18T20:18:14.031Z,92.50
2019-05-18T20:20:42.521Z,92.80
2019-05-18T20:23:10.983Z,92.70
2019-05-18T20:25:39.575Z,93.10
2019-05-18T20:28:08.036Z,93.30
2019-05-18T20:30:36.498Z,93.40
2019-05-18T20:33:05.084Z,94.00
2019-05-18T20:35:33.614Z,94.00
2019-05-18T20:38:03.339Z,94.00
2019-05-18T20:40:31.766Z,94.10
2019-05-18T20:43:00.378Z,94.10
2019-05-18T20:45:28.828Z,94.40
2019-05-18T20:47:57.296Z,94.80
2019-05-18T20:50:25.891Z,94.80
2019-05-18T20:52:54.347Z,94.90
2019-05-18T20:55:22.875Z,95.00
2019-05-18T20:57:51.410Z,95.10
2019-05-18T21:00:19.955Z,95.30
2019-05-18T21:02:49.392Z,95.50
2019-05-18T21:05:18.165Z,95.60
2019-05-18T21:07:46.776Z,95.70
2019-05-18T21:10:15.402Z,95.60
2019-05-18T21:12:43.865Z,95.60
2019-05-18T21:15:13.024Z,95.80
2019-05-18T21:17:41.985Z,96.00
2019-05-18T21:20:31.443Z,96.30
2019-05-18T21:22:59.908Z,96.30
2019-05-18T21:25:28.457Z,96.60
2019-05-18T21:27:57.047Z,96.70
2019-05-18T21:30:25.576Z,96.90
2019-05-18T21:32:54.032Z,97.10
2019-05-18T21:35:22.627Z,97.40
2019-05-18T21:37:51.086Z,97.60
2019-05-18T21:40:19.633Z,98.20
2019-05-18T21:42:48.198Z,97.90
2019-05-18T21:45:17.080Z,97.90
2019-05-18T21:47:45.642Z,98.00
2019-05-18T21:50:15.025Z,98.10
2019-05-18T21:52:43.604Z,98.10
2019-05-18T21:55:12.716Z,98.30
2019-05-18T21:57:42.776Z,98.30
2019-05-18T22:02:47.259Z,98.50
2019-05-18T22:05:15.714Z,98.50
2019-05-18T22:07:44.210Z,98.70
2019-05-18T22:10:24.741Z,98.80
2019-05-18T22:12:43.225Z,98.70
2019-05-18T22:15:12.129Z,98.80
2019-05-18T22:17:58.612Z,99.10
2019-05-18T22:20:27.071Z,99.30
2019-05-18T22:22:55.596Z,99.20
2019-05-18T22:25:24.137Z,99.10
2019-05-18T22:27:52.675Z,99.10
2019-05-18T22:30:21.122Z,99.20
2019-05-18T22:32:49.609Z,99.30
2019-05-18T22:35:18.068Z,99.30
2019-05-18T22:37:47.731Z,99.50
2019-05-18T22:40:16.297Z,99.70
2019-05-18T22:42:44.790Z,99.90
2019-05-18T22:45:13.518Z,99.90
2019-05-18T22:47:41.982Z,99.90
2019-05-18T22:50:12.359Z,99.90
2019-05-18T22:52:40.877Z,99.90
2019-05-18T22:55:09.672Z,99.90
2019-05-18T22:57:38.185Z,99.90
2019-05-18T23:00:10.583Z,99.90
2019-05-18T23:02:39.039Z,99.90
2019-05-18T23:05:07.673Z,99.90
2019-05-18T23:07:36.127Z,99.90
2019-05-18T23:10:06.022Z,99.90
2019-05-18T23:12:34.535Z,99.90
2019-05-18T23:15:03.265Z,99.90
2019-05-18T23:17:31.710Z,99.90
2019-05-18T23:20:00.452Z,99.90
2019-05-18T23:22:28.913Z,99.90
2019-05-18T23:24:57.367Z,99.90
2019-05-18T23:27:25.888Z,99.90
2019-05-18T23:29:54.418Z,99.90
2019-05-18T23:32:22.879Z,99.90
2019-05-18T23:34:51.423Z,99.90
2019-05-18T23:37:19.945Z,99.90
2019-05-18T23:39:48.404Z,99.90
2019-05-18T23:42:16.916Z,99.90
2019-05-18T23:44:45.441Z,99.90
2019-05-18T23:47:13.899Z,99.90
2019-05-18T23:49:42.402Z,99.90
2019-05-18T23:52:10.916Z,99.90
2019-05-18T23:54:39.421Z,99.90
2019-05-18T23:57:07.945Z,99.90
2019-05-18T23:59:36.433Z,99.90
